createdAt,value
2022-09-22T00:01:42.797Z,6.85
2022-09-22T00:04:14.370Z,7.13
2022-09-22T00:06:44.171Z,5.87
2022-09-22T00:09:19.888Z,6.18
2022-09-22T00:11:48.880Z,6.65
2022-09-22T00:14:22.307Z,6.50
2022-09-22T00:16:59.076Z,5.78
2022-09-22T00:19:30.817Z,6.10
2022-09-22T00:22:01.268Z,6.38
2022-09-22T00:24:29.522Z,5.32
2022-09-22T00:27:00.654Z,6.72
2022-09-22T00:29:30.454Z,6.88
2022-09-22T00:32:06.988Z,6.40
2022-09-22T00:34:34.869Z,7.07
2022-09-22T00:37:02.848Z,6.78
2022-09-22T00:39:34.830Z,6.80
2022-09-22T00:42:03.939Z,6.65
2022-09-22T00:44:39.701Z,8.07
2022-09-22T00:47:10.175Z,7.55
2022-09-22T00:49:53.548Z,8.05
2022-09-22T00:52:24.742Z,6.65
2022-09-22T00:54:54.677Z,6.68
2022-09-22T00:57:26.306Z,5.55
2022-09-22T00:59:54.404Z,7.20
2022-09-22T01:02:21.792Z,5.38
2022-09-22T01:04:51.550Z,5.85
2022-09-22T01:07:26.900Z,5.28
2022-09-22T01:09:56.130Z,5.13
2022-09-22T01:12:25.674Z,5.53
2022-09-22T01:15:02.822Z,5.47
2022-09-22T01:17:30.308Z,5.43
2022-09-22T01:20:06.084Z,4.53
2022-09-22T01:22:49.621Z,5.70
2022-09-22T01:25:27.941Z,4.07
2022-09-22T01:28:04.388Z,4.07
2022-09-22T01:30:43.120Z,4.13
2022-09-22T01:33:10.452Z,4.55
2022-09-22T01:35:40.212Z,5.32
2022-09-22T01:38:23.089Z,3.45
2022-09-22T01:40:57.143Z,3.95
2022-09-22T01:43:37.423Z,4.78
2022-09-22T01:46:10.483Z,3.80
2022-09-22T01:48:45.639Z,4.90
2022-09-22T01:51:20.677Z,3.83
2022-09-22T01:54:02.095Z,4.75
2022-09-22T01:56:31.365Z,3.83
2022-09-22T01:59:00.123Z,3.60
2022-09-22T02:01:35.043Z,3.80
2022-09-22T02:04:11.130Z,4.22
2022-09-22T02:06:42.219Z,4.30
2022-09-22T02:09:14.674Z,4.43
2022-09-22T02:11:42.969Z,3.38
2022-09-22T02:14:13.769Z,3.45
2022-09-22T02:16:41.652Z,3.08
2022-09-22T02:19:29.832Z,2.90
2022-09-22T02:22:00.105Z,3.45
2022-09-22T02:24:27.505Z,3.53
2022-09-22T02:26:58.736Z,4.10
2022-09-22T02:29:30.331Z,3.55
2022-09-22T02:32:03.241Z,4.78
2022-09-22T02:34:33.644Z,3.65
2022-09-22T02:37:07.076Z,3.67
2022-09-22T02:39:57.659Z,3.30
2022-09-22T02:42:28.345Z,3.33
2022-09-22T02:44:55.763Z,3.30
2022-09-22T02:47:32.573Z,2.63
2022-09-22T02:50:03.440Z,2.88
2022-09-22T02:52:32.917Z,3.00
2022-09-22T02:55:02.776Z,2.92
2022-09-22T02:57:31.274Z,3.38
2022-09-22T02:59:58.740Z,3.30
2022-09-22T03:02:28.446Z,1.98
2022-09-22T03:04:56.086Z,3.63
2022-09-22T03:07:23.495Z,2.25
2022-09-22T03:09:55.329Z,2.58
2022-09-22T03:12:22.716Z,1.97
2022-09-22T03:14:50.929Z,2.22
2022-09-22T03:17:18.356Z,1.90
2022-09-22T03:19:46.500Z,1.77
2022-09-22T03:22:13.875Z,2.05
2022-09-22T03:24:42.344Z,1.88
2022-09-22T03:27:11.969Z,2.65
2022-09-22T03:29:39.424Z,1.92
2022-09-22T03:32:06.780Z,2.72
2022-09-22T03:34:34.971Z,1.88
2022-09-22T03:37:02.434Z,2.45
2022-09-22T03:39:29.715Z,2.10
2022-09-22T03:41:58.234Z,2.33
2022-09-22T03:44:28.622Z,1.70
2022-09-22T03:46:55.954Z,2.13
2022-09-22T03:49:23.310Z,1.88
2022-09-22T03:51:50.583Z,2.22
2022-09-22T03:54:20.781Z,2.15
2022-09-22T03:56:48.478Z,2.10
2022-09-22T03:59:16.198Z,1.23
2022-09-22T04:01:44.106Z,1.52
2022-09-22T04:04:13.468Z,1.98
2022-09-22T04:06:40.880Z,1.63
2022-09-22T04:09:08.590Z,1.27
2022-09-22T04:11:39.375Z,1.60
2022-09-22T04:14:07.961Z,1.45
2022-09-22T04:19:57.951Z,1.52
2022-09-22T04:22:25.483Z,1.65
2022-09-22T04:24:55.710Z,2.40
2022-09-22T04:27:29.441Z,1.40
2022-09-22T04:29:57.965Z,1.38
2022-09-22T04:32:25.485Z,1.83
2022-09-22T04:34:52.905Z,1.52
2022-09-22T04:37:20.373Z,2.10
2022-09-22T04:43:09.861Z,2.05
2022-09-22T04:45:39.681Z,1.55
2022-09-22T04:48:09.689Z,1.45
2022-09-22T04:50:37.832Z,1.25
2022-09-22T04:53:05.676Z,1.45
2022-09-22T04:55:34.863Z,1.35
2022-09-22T04:58:04.049Z,1.30
2022-09-22T05:00:31.889Z,2.00
2022-09-22T05:02:59.676Z,1.05
2022-09-22T05:05:28.185Z,1.65
2022-09-22T05:07:55.701Z,1.45
2022-09-22T05:10:28.751Z,1.50
2022-09-22T05:12:59.677Z,1.20
2022-09-22T05:15:27.439Z,1.27
2022-09-22T05:17:56.699Z,1.33
2022-09-22T05:20:24.150Z,1.40
2022-09-22T05:22:53.450Z,1.10
2022-09-22T05:25:20.996Z,1.13
2022-09-22T05:27:53.720Z,1.27
2022-09-22T05:32:57.121Z,1.38
2022-09-22T05:35:25.323Z,1.65
2022-09-22T05:37:53.430Z,1.63
2022-09-22T05:40:26.512Z,1.27
2022-09-22T05:42:54.550Z,1.23
2022-09-22T05:45:24.727Z,1.27
2022-09-22T05:47:53.488Z,1.50
2022-09-22T05:50:22.040Z,1.75
2022-09-22T05:52:49.519Z,1.38
2022-09-22T05:55:17.400Z,1.38
2022-09-22T05:57:51.993Z,1.13
2022-09-22T06:00:20.551Z,0.80
2022-09-22T06:02:50.981Z,1.30
2022-09-22T06:05:24.686Z,1.67
2022-09-22T06:08:00.280Z,1.52
2022-09-22T06:10:27.839Z,1.23
2022-09-22T06:13:01.926Z,1.00
2022-09-22T06:15:29.563Z,1.10
2022-09-22T06:17:57.009Z,1.00
2022-09-22T06:20:29.568Z,0.90
2022-09-22T06:22:59.199Z,0.70
2022-09-22T06:25:29.940Z,1.20
2022-09-22T06:28:02.668Z,0.70
2022-09-22T06:33:04.212Z,1.55
2022-09-22T06:35:42.699Z,0.98
2022-09-22T06:38:13.077Z,1.08
2022-09-22T06:40:42.901Z,1.45
2022-09-22T06:43:18.758Z,1.15
2022-09-22T06:45:50.911Z,0.93
2022-09-22T06:48:20.925Z,0.93
2022-09-22T06:50:52.442Z,1.05
2022-09-22T06:53:32.078Z,0.60
2022-09-22T06:56:00.996Z,0.73
2022-09-22T06:58:47.026Z,0.75
2022-09-22T07:01:21.619Z,1.17
2022-09-22T07:03:49.495Z,0.65
2022-09-22T07:06:21.292Z,0.40
2022-09-22T07:08:51.794Z,1.73
2022-09-22T07:11:24.140Z,0.80
2022-09-22T07:13:53.568Z,0.57
2022-09-22T07:16:28.214Z,0.80
2022-09-22T07:19:01.167Z,0.70
2022-09-22T07:21:30.610Z,1.65
2022-09-22T07:23:59.852Z,0.98
2022-09-22T07:26:31.399Z,0.70
2022-09-22T07:29:05.811Z,0.40
2022-09-22T07:31:35.367Z,0.47
2022-09-22T07:34:05.666Z,0.50
2022-09-22T07:36:37.658Z,0.90
2022-09-22T07:39:08.726Z,0.40
2022-09-22T07:41:42.267Z,0.52
2022-09-22T07:44:29.073Z,0.50
2022-09-22T07:46:58.101Z,0.65
2022-09-22T07:49:39.702Z,0.68
2022-09-22T07:52:08.966Z,0.55
2022-09-22T07:54:39.156Z,0.38
2022-09-22T07:57:07.328Z,0.70
2022-09-22T07:59:36.594Z,0.40
2022-09-22T08:02:04.396Z,0.60
2022-09-22T08:04:35.989Z,0.20
2022-09-22T08:07:07.301Z,0.55
2022-09-22T08:09:39.889Z,0.45
2022-09-22T08:12:07.391Z,0.60
2022-09-22T08:14:35.463Z,0.50
2022-09-22T08:17:07.071Z,0.40
2022-09-22T08:19:36.001Z,0.28
2022-09-22T08:22:03.441Z,0.60
2022-09-22T08:24:31.550Z,0.40
2022-09-22T08:26:59.707Z,0.40
2022-09-22T08:29:28.866Z,0.43
2022-09-22T08:31:57.157Z,0.40
2022-09-22T08:34:25.514Z,0.90
2022-09-22T08:36:55.023Z,0.40
2022-09-22T08:39:24.668Z,0.55
2022-09-22T08:42:09.953Z,0.60
2022-09-22T08:45:06.007Z,0.40
2022-09-22T08:48:05.952Z,0.28
2022-09-22T08:51:00.166Z,0.30
2022-09-22T08:53:35.095Z,0.45
2022-09-22T08:56:20.980Z,0.17
2022-09-22T08:58:59.067Z,0.40
2022-09-22T09:01:42.942Z,0.50
2022-09-22T09:04:25.221Z,0.30
2022-09-22T09:07:05.525Z,0.20
2022-09-22T09:09:42.135Z,0.20
2022-09-22T09:12:25.436Z,0.45
2022-09-22T09:15:19.429Z,0.35
2022-09-22T09:17:53.102Z,0.20
2022-09-22T09:20:28.873Z,0.13
2022-09-22T09:22:56.607Z,0.43
2022-09-22T09:25:31.059Z,0.40
2022-09-22T09:28:04.833Z,0.20
2022-09-22T09:30:41.903Z,0.20
2022-09-22T09:33:33.285Z,0.30
2022-09-22T09:36:02.704Z,0.20
2022-09-22T09:38:32.116Z,0.35
2022-09-22T09:41:04.161Z,0.70
2022-09-22T09:43:32.005Z,0.40
2022-09-22T09:46:08.404Z,0.20
2022-09-22T09:48:44.606Z,0.10
2022-09-22T09:51:13.160Z,0.20
2022-09-22T09:53:50.261Z,0.20
2022-09-22T09:56:30.671Z,0.60
2022-09-22T09:59:20.503Z,0.43
2022-09-22T10:01:55.184Z,0.10
2022-09-22T10:04:22.673Z,0.08
2022-09-22T10:06:50.239Z,0.30
2022-09-22T10:09:25.085Z,1.05
2022-09-22T10:12:04.546Z,0.10
2022-09-22T10:14:37.891Z,0.15
2022-09-22T10:17:21.740Z,0.20
2022-09-22T10:19:51.364Z,0.10
2022-09-22T10:22:25.619Z,0.00
2022-09-22T10:24:57.618Z,0.20
2022-09-22T10:27:28.660Z,0.30
2022-09-22T10:30:25.383Z,0.00
2022-09-22T10:33:11.409Z,0.20
2022-09-22T10:35:39.094Z,0.15
2022-09-22T10:38:21.317Z,0.20
2022-09-22T10:40:51.019Z,0.30
2022-09-22T10:43:31.894Z,0.20
2022-09-22T10:46:23.817Z,0.50
2022-09-22T10:49:06.214Z,0.20
2022-09-22T10:52:12.054Z,0.38
2022-09-22T10:54:42.552Z,0.40
2022-09-22T10:57:29.152Z,0.10
2022-09-22T11:00:10.615Z,0.10
2022-09-22T11:02:42.821Z,0.30
2022-09-22T11:05:16.526Z,0.10
2022-09-22T11:08:23.841Z,0.10
2022-09-22T11:11:21.745Z,0.10
2022-09-22T11:14:01.770Z,0.03
2022-09-22T11:16:30.556Z,0.15
2022-09-22T11:19:07.264Z,0.10
2022-09-22T11:21:53.943Z,0.20
2022-09-22T11:24:30.066Z,0.32
2022-09-22T11:27:03.340Z,0.20
2022-09-22T11:29:32.009Z,0.20
2022-09-22T11:32:15.926Z,0.38
2022-09-22T11:34:46.696Z,0.40
2022-09-22T11:37:29.950Z,0.20
2022-09-22T11:42:32.125Z,0.15
2022-09-22T11:45:00.556Z,0.35
2022-09-22T11:47:50.890Z,0.20
2022-09-22T11:50:21.504Z,0.50
2022-09-22T11:52:50.722Z,0.10
2022-09-22T11:55:23.338Z,0.03
2022-09-22T11:57:56.029Z,0.10
2022-09-22T12:00:26.016Z,0.10
2022-09-22T12:03:02.051Z,0.20
2022-09-22T12:05:39.887Z,0.65
2022-09-22T12:08:27.589Z,0.20
2022-09-22T12:10:56.481Z,0.10
2022-09-22T12:13:26.736Z,0.13
2022-09-22T12:16:13.666Z,0.30
2022-09-22T12:18:50.291Z,0.30
2022-09-22T12:21:31.181Z,0.05
2022-09-22T12:24:04.287Z,0.20
2022-09-22T12:26:36.107Z,0.20
2022-09-22T12:29:08.831Z,0.95
2022-09-22T12:31:42.528Z,0.13
2022-09-22T12:34:35.886Z,0.40
2022-09-22T12:37:15.697Z,0.10
2022-09-22T12:39:46.969Z,0.35
2022-09-22T12:42:36.100Z,0.20
2022-09-22T12:45:11.237Z,0.10
2022-09-22T12:47:39.714Z,0.20
2022-09-22T12:50:28.905Z,0.17
2022-09-22T12:53:03.217Z,0.20
2022-09-22T12:55:41.385Z,0.10
2022-09-22T12:58:33.010Z,0.08
2022-09-22T13:01:20.248Z,0.20
2022-09-22T13:03:52.355Z,0.13
2022-09-22T13:06:22.907Z,0.30
2022-09-22T13:08:53.334Z,0.15
2022-09-22T13:11:40.604Z,0.30
2022-09-22T13:14:26.774Z,0.10
2022-09-22T13:16:54.178Z,0.10
2022-09-22T13:19:22.101Z,0.17
2022-09-22T13:21:56.283Z,0.80
2022-09-22T13:24:27.554Z,0.10
2022-09-22T13:27:16.822Z,0.30
2022-09-22T13:30:00.431Z,0.20
2022-09-22T13:32:29.085Z,0.20
2022-09-22T13:34:57.975Z,0.30
2022-09-22T13:37:28.354Z,0.20
2022-09-22T13:39:56.599Z,0.20
2022-09-22T13:42:26.814Z,0.20
2022-09-22T13:45:17.089Z,0.20
2022-09-22T13:47:45.030Z,0.20
2022-09-22T13:50:22.220Z,0.10
2022-09-22T13:52:55.520Z,0.47
2022-09-22T13:57:54.772Z,0.10
2022-09-22T14:00:35.642Z,0.20
2022-09-22T14:03:17.049Z,0.13
2022-09-22T14:05:53.447Z,0.30
2022-09-22T14:08:27.201Z,0.40
2022-09-22T14:10:56.163Z,0.40
2022-09-22T14:13:39.213Z,0.45
2022-09-22T14:16:13.418Z,0.10
2022-09-22T14:18:42.851Z,0.20
2022-09-22T14:21:14.573Z,0.32
2022-09-22T14:23:53.661Z,0.17
2022-09-22T14:26:20.934Z,0.20
2022-09-22T14:28:50.345Z,0.20
2022-09-22T14:31:23.852Z,0.25
2022-09-22T14:33:51.784Z,0.20
2022-09-22T14:36:21.593Z,0.20
2022-09-22T14:39:04.675Z,0.10
2022-09-22T14:41:38.456Z,0.30
2022-09-22T14:44:28.656Z,0.65
2022-09-22T14:46:57.661Z,0.15
2022-09-22T14:49:57.490Z,0.20
2022-09-22T14:52:29.601Z,0.20
2022-09-22T14:54:58.878Z,0.30
2022-09-22T14:57:27.272Z,0.10
2022-09-22T15:00:15.165Z,0.15
2022-09-22T15:02:47.092Z,0.20
2022-09-22T15:05:29.658Z,0.10
2022-09-22T15:10:32.142Z,0.30
2022-09-22T15:13:20.171Z,0.60
2022-09-22T15:15:50.472Z,0.30
2022-09-22T15:18:21.212Z,0.30
2022-09-22T15:20:52.541Z,0.20
2022-09-22T15:23:32.623Z,0.10
2022-09-22T15:26:24.918Z,1.60
2022-09-22T15:28:55.190Z,0.20
2022-09-22T15:31:27.321Z,0.20
2022-09-22T15:34:00.636Z,0.70
2022-09-22T15:36:31.507Z,0.20
2022-09-22T15:39:10.253Z,0.13
2022-09-22T15:41:45.172Z,0.40
2022-09-22T15:44:15.505Z,0.10
2022-09-22T15:46:43.928Z,1.45
2022-09-22T15:49:13.813Z,0.10
2022-09-22T15:51:44.301Z,0.20
2022-09-22T15:54:15.797Z,0.20
2022-09-22T15:56:43.782Z,0.10
2022-09-22T15:59:22.642Z,0.10
2022-09-22T16:02:04.128Z,0.20
2022-09-22T16:04:34.257Z,0.17
2022-09-22T16:07:06.488Z,0.17
2022-09-22T16:09:36.040Z,0.10
2022-09-22T16:12:03.947Z,0.20
2022-09-22T16:14:31.388Z,0.10
2022-09-22T16:17:01.105Z,0.10
2022-09-22T16:19:33.735Z,0.10
2022-09-22T16:24:44.793Z,0.10
2022-09-22T16:27:15.761Z,1.05
2022-09-22T16:29:47.530Z,0.20
2022-09-22T16:32:15.655Z,0.22
2022-09-22T16:34:45.369Z,0.20
2022-09-22T16:37:12.735Z,0.40
2022-09-22T16:39:45.718Z,0.20
2022-09-22T16:42:16.581Z,0.15
2022-09-22T16:44:46.569Z,0.40
2022-09-22T16:47:22.355Z,1.38
2022-09-22T16:49:51.975Z,0.10
2022-09-22T16:52:20.581Z,0.15
2022-09-22T16:54:48.008Z,0.20
2022-09-22T16:57:17.624Z,0.22
2022-09-22T16:59:46.280Z,0.60
2022-09-22T17:02:13.916Z,0.57
2022-09-22T17:04:41.385Z,0.20
2022-09-22T17:07:09.561Z,0.30
2022-09-22T17:09:41.424Z,0.20
2022-09-22T17:12:14.439Z,0.13
2022-09-22T17:17:17.985Z,0.20
2022-09-22T17:19:53.865Z,0.35
2022-09-22T17:22:22.943Z,0.63
2022-09-22T17:24:51.019Z,0.30
2022-09-22T17:27:22.478Z,0.20
2022-09-22T17:29:49.951Z,0.20
2022-09-22T17:32:17.323Z,0.17
2022-09-22T17:34:44.700Z,0.10
2022-09-22T17:37:16.478Z,0.55
2022-09-22T17:39:44.189Z,0.30
2022-09-22T17:42:15.127Z,0.25
2022-09-22T17:44:47.032Z,0.10
2022-09-22T17:47:51.642Z,0.30
2022-09-22T17:50:37.104Z,0.25
2022-09-22T17:53:22.840Z,0.20
2022-09-22T17:55:51.752Z,0.20
2022-09-22T17:58:19.945Z,0.30
2022-09-22T18:00:48.181Z,0.10
2022-09-22T18:03:15.652Z,0.40
2022-09-22T18:05:43.092Z,0.30
2022-09-22T18:08:11.624Z,0.20
2022-09-22T18:10:44.800Z,0.30
2022-09-22T18:13:12.111Z,0.25
2022-09-22T18:15:41.277Z,0.20
2022-09-22T18:18:14.467Z,0.30
2022-09-22T18:20:44.582Z,0.20
2022-09-22T18:23:12.043Z,0.60
2022-09-22T18:25:39.544Z,0.13
2022-09-22T18:28:07.059Z,0.20
2022-09-22T18:30:37.814Z,0.60
2022-09-22T18:33:05.379Z,0.20
2022-09-22T18:35:32.909Z,0.60
2022-09-22T18:38:01.008Z,0.30
2022-09-22T18:40:30.704Z,0.52
2022-09-22T18:42:58.202Z,0.30
2022-09-22T18:45:25.763Z,0.30
2022-09-22T18:47:53.228Z,0.40
2022-09-22T18:50:24.135Z,0.38
2022-09-22T18:53:00.166Z,0.45
2022-09-22T18:55:27.865Z,0.15
2022-09-22T18:57:56.637Z,0.20
2022-09-22T19:00:25.525Z,0.20
2022-09-22T19:02:53.003Z,0.20
2022-09-22T19:05:22.815Z,0.20
2022-09-22T19:07:50.971Z,0.28
2022-09-22T19:10:25.200Z,0.10
2022-09-22T19:12:55.435Z,0.20
2022-09-22T19:15:27.227Z,0.20
2022-09-22T19:17:56.914Z,0.30
2022-09-22T19:20:28.340Z,0.35
2022-09-22T19:22:55.787Z,0.30
2022-09-22T19:25:24.932Z,0.30
2022-09-22T19:27:55.259Z,0.30
2022-09-22T19:30:28.560Z,0.15
2022-09-22T19:32:58.805Z,0.20
2022-09-22T19:35:26.500Z,0.20
2022-09-22T19:37:54.492Z,0.63
2022-09-22T19:40:25.013Z,0.45
2022-09-22T19:42:53.613Z,0.28
2022-09-22T19:45:27.573Z,0.30
2022-09-22T19:48:00.064Z,0.30
2022-09-22T19:50:30.337Z,0.20
2022-09-22T19:52:57.722Z,0.13
2022-09-22T19:55:28.556Z,0.30
2022-09-22T19:57:56.256Z,0.20
2022-09-22T20:00:26.842Z,0.22
2022-09-22T20:03:04.267Z,0.75
2022-09-22T20:05:37.422Z,0.22
2022-09-22T20:08:16.109Z,0.30
2022-09-22T20:10:44.277Z,0.20
2022-09-22T20:13:33.827Z,0.20
2022-09-22T20:16:01.750Z,0.20
2022-09-22T20:18:31.389Z,0.20
2022-09-22T20:21:05.487Z,0.20
2022-09-22T20:23:33.124Z,0.10
2022-09-22T20:26:02.043Z,0.68
2022-09-22T20:28:29.574Z,0.10
2022-09-22T20:30:57.079Z,1.25
2022-09-22T20:33:26.351Z,1.42
2022-09-22T20:35:56.188Z,0.40
2022-09-22T20:38:29.230Z,0.30
2022-09-22T20:43:25.641Z,0.40
2022-09-22T20:45:53.161Z,0.45
2022-09-22T20:48:20.666Z,1.77
2022-09-22T20:51:06.140Z,0.45
2022-09-22T20:53:34.337Z,0.30
2022-09-22T20:56:06.753Z,0.45
2022-09-22T20:58:37.744Z,0.50
2022-09-22T21:24:59.323Z,0.20
2022-09-22T21:27:27.953Z,0.20
2022-09-22T21:29:55.859Z,0.40
2022-09-22T21:32:23.711Z,0.50
2022-09-22T21:34:53.451Z,0.20
2022-09-22T21:37:24.798Z,0.28
2022-09-22T21:39:54.804Z,0.50
2022-09-22T21:42:25.904Z,0.30
2022-09-22T21:44:53.534Z,0.20
2022-09-22T21:47:22.447Z,0.25
2022-09-22T21:49:51.012Z,0.35
2022-09-22T21:52:18.504Z,0.50
2022-09-22T21:54:46.179Z,0.20
2022-09-22T21:57:13.602Z,0.28
2022-09-22T21:59:41.352Z,0.28
2022-09-22T22:02:08.795Z,0.30
2022-09-22T22:04:36.355Z,0.40
2022-09-22T22:07:04.136Z,0.30
2022-09-22T22:09:34.780Z,0.10
2022-09-22T22:12:04.330Z,0.20
2022-09-22T22:14:33.477Z,0.20
2022-09-22T22:17:02.728Z,0.57
2022-09-22T22:19:33.382Z,0.25
2022-09-22T22:22:00.740Z,0.50
2022-09-22T22:24:33.589Z,0.20
2022-09-22T22:27:10.518Z,0.30
2022-09-22T22:29:44.052Z,0.30
2022-09-22T22:32:16.072Z,0.57
2022-09-22T22:34:43.362Z,0.45
2022-09-22T22:37:13.703Z,0.22
2022-09-22T22:39:41.093Z,0.30
2022-09-22T22:42:11.323Z,0.30
2022-09-22T22:44:38.630Z,0.65
2022-09-22T22:47:07.831Z,0.32
2022-09-22T22:49:35.151Z,0.40
2022-09-22T22:52:02.587Z,0.40
2022-09-22T22:54:34.458Z,0.20
2022-09-22T22:57:01.896Z,0.20
2022-09-22T22:59:29.441Z,0.30
2022-09-22T23:02:05.512Z,0.30
2022-09-22T23:04:33.642Z,0.52
2022-09-22T23:07:03.696Z,0.10
2022-09-22T23:09:32.743Z,0.30
2022-09-22T23:12:00.249Z,0.20
2022-09-22T23:14:27.752Z,0.38
2022-09-22T23:16:55.223Z,0.57
2022-09-22T23:19:22.739Z,0.10
2022-09-22T23:21:53.394Z,0.43
2022-09-22T23:24:23.028Z,0.20
2022-09-22T23:27:01.234Z,0.40
2022-09-22T23:29:33.688Z,0.20
2022-09-22T23:32:01.151Z,0.35
2022-09-22T23:34:30.716Z,0.30
2022-09-22T23:36:58.207Z,0.20
2022-09-22T23:39:25.739Z,0.20
2022-09-22T23:41:54.863Z,0.28
2022-09-22T23:44:25.926Z,0.40
2022-09-22T23:46:53.288Z,1.10
2022-09-22T23:49:21.307Z,0.30
2022-09-22T23:51:48.701Z,0.25
2022-09-22T23:54:16.072Z,0.30
2022-09-22T23:56:43.503Z,0.25
2022-09-22T23:59:10.836Z,0.70
